sensor_id;sensor_type;location;lat;lon;timestamp;P1;durP1;ratioP1;P2;durP2;ratioP2
27746;SDS011;15138;51.012;4.692;2023-02-26T00:01:59;16.52;;;5.88;;
27746;SDS011;15138;51.012;4.692;2023-02-26T00:04:28;11.75;;;5.32;;
27746;SDS011;15138;51.012;4.692;2023-02-26T00:06:57;10.05;;;4.88;;
27746;SDS011;15138;51.012;4.692;2023-02-26T00:09:26;10.93;;;4.75;;
27746;SDS011;15138;51.012;4.692;2023-02-26T00:11:55;10.77;;;4.28;;
27746;SDS011;15138;51.012;4.692;2023-02-26T00:14:26;10.02;;;3.83;;
27746;SDS011;15138;51.012;4.692;2023-02-26T00:16:58;13.13;;;5.15;;
27746;SDS011;15138;51.012;4.692;2023-02-26T00:19:40;8.70;;;4.15;;
27746;SDS011;15138;51.012;4.692;2023-02-26T00:22:09;12.90;;;5.07;;
27746;SDS011;15138;51.012;4.692;2023-02-26T00:24:37;12.35;;;4.70;;
27746;SDS011;15138;51.012;4.692;2023-02-26T00:27:06;10.07;;;4.22;;
27746;SDS011;15138;51.012;4.692;2023-02-26T00:29:37;12.57;;;5.07;;
27746;SDS011;15138;51.012;4.692;2023-02-26T00:32:05;10.93;;;4.15;;
27746;SDS011;15138;51.012;4.692;2023-02-26T00:34:35;13.27;;;4.50;;
27746;SDS011;15138;51.012;4.692;2023-02-26T00:37:09;11.45;;;5.13;;
27746;SDS011;15138;51.012;4.692;2023-02-26T00:39:46;11.60;;;4.38;;
27746;SDS011;15138;51.012;4.692;2023-02-26T00:42:21;14.27;;;5.43;;
27746;SDS011;15138;51.012;4.692;2023-02-26T00:44:52;9.60;;;3.97;;
27746;SDS011;15138;51.012;4.692;2023-02-26T00:47:23;10.05;;;4.68;;
27746;SDS011;15138;51.012;4.692;2023-02-26T00:50:04;14.50;;;4.57;;
27746;SDS011;15138;51.012;4.692;2023-02-26T00:52:42;8.35;;;4.43;;
27746;SDS011;15138;51.012;4.692;2023-02-26T00:55:16;10.55;;;4.10;;
27746;SDS011;15138;51.012;4.692;2023-02-26T00:57:45;12.90;;;5.20;;
27746;SDS011;15138;51.012;4.692;2023-02-26T01:00:16;9.02;;;4.32;;
27746;SDS011;15138;51.012;4.692;2023-02-26T01:02:45;8.32;;;3.78;;
27746;SDS011;15138;51.012;4.692;2023-02-26T01:05:15;8.50;;;4.00;;
27746;SDS011;15138;51.012;4.692;2023-02-26T01:07:45;8.90;;;3.63;;
27746;SDS011;15138;51.012;4.692;2023-02-26T01:10:26;7.07;;;3.40;;
27746;SDS011;15138;51.012;4.692;2023-02-26T01:12:55;14.98;;;4.65;;
27746;SDS011;15138;51.012;4.692;2023-02-26T01:15:27;12.82;;;4.43;;
27746;SDS011;15138;51.012;4.692;2023-02-26T01:17:58;9.40;;;3.67;;
27746;SDS011;15138;51.012;4.692;2023-02-26T01:20:33;8.48;;;3.45;;
27746;SDS011;15138;51.012;4.692;2023-02-26T01:23:08;13.90;;;3.95;;
27746;SDS011;15138;51.012;4.692;2023-02-26T01:25:40;12.75;;;3.83;;
27746;SDS011;15138;51.012;4.692;2023-02-26T01:28:11;17.98;;;4.65;;
27746;SDS011;15138;51.012;4.692;2023-02-26T01:30:42;10.57;;;3.78;;
27746;SDS011;15138;51.012;4.692;2023-02-26T01:33:13;11.85;;;4.00;;
27746;SDS011;15138;51.012;4.692;2023-02-26T01:35:47;15.13;;;4.80;;
27746;SDS011;15138;51.012;4.692;2023-02-26T01:38:21;12.15;;;4.47;;
27746;SDS011;15138;51.012;4.692;2023-02-26T01:41:02;15.93;;;4.40;;
27746;SDS011;15138;51.012;4.692;2023-02-26T01:43:56;14.52;;;4.03;;
27746;SDS011;15138;51.012;4.692;2023-02-26T01:46:33;18.10;;;4.40;;
27746;SDS011;15138;51.012;4.692;2023-02-26T01:49:11;13.07;;;4.18;;
27746;SDS011;15138;51.012;4.692;2023-02-26T01:51:43;12.57;;;3.65;;
27746;SDS011;15138;51.012;4.692;2023-02-26T01:54:14;9.27;;;3.78;;
27746;SDS011;15138;51.012;4.692;2023-02-26T01:56:47;12.15;;;3.55;;
27746;SDS011;15138;51.012;4.692;2023-02-26T01:59:18;15.82;;;4.43;;
27746;SDS011;15138;51.012;4.692;2023-02-26T02:01:52;11.77;;;4.40;;
27746;SDS011;15138;51.012;4.692;2023-02-26T02:04:24;16.38;;;4.07;;
27746;SDS011;15138;51.012;4.692;2023-02-26T02:06:53;13.32;;;3.45;;
27746;SDS011;15138;51.012;4.692;2023-02-26T02:09:22;11.23;;;3.38;;
27746;SDS011;15138;51.012;4.692;2023-02-26T02:12:09;11.80;;;3.75;;
27746;SDS011;15138;51.012;4.692;2023-02-26T02:14:51;15.93;;;4.18;;
27746;SDS011;15138;51.012;4.692;2023-02-26T02:17:33;11.02;;;2.95;;
27746;SDS011;15138;51.012;4.692;2023-02-26T02:20:25;13.93;;;4.50;;
27746;SDS011;15138;51.012;4.692;2023-02-26T02:23:11;11.13;;;3.13;;
27746;SDS011;15138;51.012;4.692;2023-02-26T02:25:52;14.98;;;3.85;;
27746;SDS011;15138;51.012;4.692;2023-02-26T02:28:41;12.57;;;3.95;;
27746;SDS011;15138;51.012;4.692;2023-02-26T02:31:27;9.52;;;3.17;;
27746;SDS011;15138;51.012;4.692;2023-02-26T02:34:01;8.80;;;3.10;;
27746;SDS011;15138;51.012;4.692;2023-02-26T02:36:37;11.35;;;3.53;;
27746;SDS011;15138;51.012;4.692;2023-02-26T02:39:10;8.05;;;2.95;;
27746;SDS011;15138;51.012;4.692;2023-02-26T02:41:44;14.75;;;3.63;;
27746;SDS011;15138;51.012;4.692;2023-02-26T02:44:16;12.68;;;3.33;;
27746;SDS011;15138;51.012;4.692;2023-02-26T02:46:49;15.93;;;3.72;;
27746;SDS011;15138;51.012;4.692;2023-02-26T02:49:23;11.00;;;4.00;;
27746;SDS011;15138;51.012;4.692;2023-02-26T02:51:57;10.55;;;3.40;;
27746;SDS011;15138;51.012;4.692;2023-02-26T02:54:32;10.15;;;2.90;;
27746;SDS011;15138;51.012;4.692;2023-02-26T02:57:05;13.57;;;3.53;;
27746;SDS011;15138;51.012;4.692;2023-02-26T02:59:40;9.88;;;2.90;;
27746;SDS011;15138;51.012;4.692;2023-02-26T03:02:14;10.02;;;3.47;;
27746;SDS011;15138;51.012;4.692;2023-02-26T03:04:46;9.35;;;2.90;;
27746;SDS011;15138;51.012;4.692;2023-02-26T03:07:14;10.40;;;2.47;;
27746;SDS011;15138;51.012;4.692;2023-02-26T03:09:43;9.77;;;2.80;;
27746;SDS011;15138;51.012;4.692;2023-02-26T03:12:12;12.45;;;3.30;;
27746;SDS011;15138;51.012;4.692;2023-02-26T03:14:41;13.40;;;3.30;;
27746;SDS011;15138;51.012;4.692;2023-02-26T03:17:18;9.50;;;2.72;;
27746;SDS011;15138;51.012;4.692;2023-02-26T03:19:58;8.75;;;2.80;;
27746;SDS011;15138;51.012;4.692;2023-02-26T03:22:37;6.28;;;2.00;;
27746;SDS011;15138;51.012;4.692;2023-02-26T03:25:11;12.63;;;3.38;;
27746;SDS011;15138;51.012;4.692;2023-02-26T03:27:45;12.50;;;2.90;;
27746;SDS011;15138;51.012;4.692;2023-02-26T03:30:19;9.90;;;2.67;;
27746;SDS011;15138;51.012;4.692;2023-02-26T03:32:55;8.93;;;2.70;;
27746;SDS011;15138;51.012;4.692;2023-02-26T03:35:31;9.65;;;2.45;;
27746;SDS011;15138;51.012;4.692;2023-02-26T03:38:05;8.85;;;2.53;;
27746;SDS011;15138;51.012;4.692;2023-02-26T03:40:38;8.98;;;2.70;;
27746;SDS011;15138;51.012;4.692;2023-02-26T03:43:12;10.02;;;3.03;;
27746;SDS011;15138;51.012;4.692;2023-02-26T03:45:45;7.43;;;2.22;;
27746;SDS011;15138;51.012;4.692;2023-02-26T03:48:21;9.90;;;3.00;;
27746;SDS011;15138;51.012;4.692;2023-02-26T03:50:56;7.80;;;2.35;;
27746;SDS011;15138;51.012;4.692;2023-02-26T03:53:29;10.50;;;2.30;;
27746;SDS011;15138;51.012;4.692;2023-02-26T03:56:01;11.40;;;2.40;;
27746;SDS011;15138;51.012;4.692;2023-02-26T03:58:33;10.25;;;2.42;;
27746;SDS011;15138;51.012;4.692;2023-02-26T04:01:03;9.40;;;2.35;;
27746;SDS011;15138;51.012;4.692;2023-02-26T04:03:37;6.30;;;2.50;;
27746;SDS011;15138;51.012;4.692;2023-02-26T04:06:11;10.02;;;2.55;;
27746;SDS011;15138;51.012;4.692;2023-02-26T04:08:41;10.40;;;2.40;;
27746;SDS011;15138;51.012;4.692;2023-02-26T04:11:11;10.52;;;2.35;;
27746;SDS011;15138;51.012;4.692;2023-02-26T04:13:42;6.82;;;2.00;;
27746;SDS011;15138;51.012;4.692;2023-02-26T04:16:11;4.20;;;1.80;;
27746;SDS011;15138;51.012;4.692;2023-02-26T04:18:42;11.18;;;2.60;;
27746;SDS011;15138;51.012;4.692;2023-02-26T04:21:11;8.98;;;2.33;;
27746;SDS011;15138;51.012;4.692;2023-02-26T04:23:40;7.35;;;2.03;;
27746;SDS011;15138;51.012;4.692;2023-02-26T04:26:08;8.43;;;2.15;;
27746;SDS011;15138;51.012;4.692;2023-02-26T04:28:38;9.10;;;2.20;;
27746;SDS011;15138;51.012;4.692;2023-02-26T04:31:07;5.57;;;1.73;;
27746;SDS011;15138;51.012;4.692;2023-02-26T04:33:36;12.70;;;2.78;;
27746;SDS011;15138;51.012;4.692;2023-02-26T04:36:07;4.70;;;1.67;;
27746;SDS011;15138;51.012;4.692;2023-02-26T04:38:36;7.32;;;1.90;;
27746;SDS011;15138;51.012;4.692;2023-02-26T04:41:05;10.10;;;1.90;;
27746;SDS011;15138;51.012;4.692;2023-02-26T04:43:33;7.22;;;1.90;;
27746;SDS011;15138;51.012;4.692;2023-02-26T04:46:03;6.60;;;1.90;;
27746;SDS011;15138;51.012;4.692;2023-02-26T04:48:32;7.43;;;1.77;;
27746;SDS011;15138;51.012;4.692;2023-02-26T04:51:00;6.82;;;1.90;;
27746;SDS011;15138;51.012;4.692;2023-02-26T04:53:31;5.97;;;1.75;;
27746;SDS011;15138;51.012;4.692;2023-02-26T04:55:59;7.80;;;2.17;;
27746;SDS011;15138;51.012;4.692;2023-02-26T04:58:28;7.22;;;1.90;;
27746;SDS011;15138;51.012;4.692;2023-02-26T05:00:56;7.15;;;1.83;;
27746;SDS011;15138;51.012;4.692;2023-02-26T05:03:24;5.68;;;1.80;;
27746;SDS011;15138;51.012;4.692;2023-02-26T05:05:53;6.22;;;2.05;;
27746;SDS011;15138;51.012;4.692;2023-02-26T05:08:22;5.22;;;1.83;;
27746;SDS011;15138;51.012;4.692;2023-02-26T05:10:51;9.93;;;2.10;;
27746;SDS011;15138;51.012;4.692;2023-02-26T05:13:20;6.38;;;1.88;;
27746;SDS011;15138;51.012;4.692;2023-02-26T05:15:48;13.30;;;1.80;;
27746;SDS011;15138;51.012;4.692;2023-02-26T05:18:18;10.82;;;2.22;;
27746;SDS011;15138;51.012;4.692;2023-02-26T05:20:52;11.00;;;1.98;;
27746;SDS011;15138;51.012;4.692;2023-02-26T05:23:21;6.32;;;2.10;;
27746;SDS011;15138;51.012;4.692;2023-02-26T05:25:49;2.95;;;1.45;;
27746;SDS011;15138;51.012;4.692;2023-02-26T05:28:21;6.63;;;1.75;;
27746;SDS011;15138;51.012;4.692;2023-02-26T05:30:49;3.97;;;1.35;;
27746;SDS011;15138;51.012;4.692;2023-02-26T05:33:18;8.15;;;1.63;;
27746;SDS011;15138;51.012;4.692;2023-02-26T05:35:47;6.00;;;1.70;;
27746;SDS011;15138;51.012;4.692;2023-02-26T05:38:16;9.10;;;2.45;;
27746;SDS011;15138;51.012;4.692;2023-02-26T05:40:45;8.00;;;1.92;;
27746;SDS011;15138;51.012;4.692;2023-02-26T05:43:15;6.88;;;1.60;;
27746;SDS011;15138;51.012;4.692;2023-02-26T05:45:44;7.47;;;1.60;;
27746;SDS011;15138;51.012;4.692;2023-02-26T05:48:12;7.00;;;1.50;;
27746;SDS011;15138;51.012;4.692;2023-02-26T05:50:41;4.22;;;1.60;;
27746;SDS011;15138;51.012;4.692;2023-02-26T05:53:09;3.92;;;1.50;;
27746;SDS011;15138;51.012;4.692;2023-02-26T05:55:38;10.68;;;2.20;;
27746;SDS011;15138;51.012;4.692;2023-02-26T05:58:06;8.05;;;1.60;;
27746;SDS011;15138;51.012;4.692;2023-02-26T06:00:38;7.25;;;1.83;;
27746;SDS011;15138;51.012;4.692;2023-02-26T06:03:06;4.50;;;1.63;;
27746;SDS011;15138;51.012;4.692;2023-02-26T06:05:35;7.60;;;1.50;;
27746;SDS011;15138;51.012;4.692;2023-02-26T06:08:04;7.18;;;1.42;;
27746;SDS011;15138;51.012;4.692;2023-02-26T06:10:32;7.28;;;1.60;;
27746;SDS011;15138;51.012;4.692;2023-02-26T06:13:01;6.35;;;1.70;;
27746;SDS011;15138;51.012;4.692;2023-02-26T06:15:30;8.05;;;1.70;;
27746;SDS011;15138;51.012;4.692;2023-02-26T06:18:00;8.63;;;1.98;;
27746;SDS011;15138;51.012;4.692;2023-02-26T06:20:29;5.00;;;1.27;;
27746;SDS011;15138;51.012;4.692;2023-02-26T06:22:57;9.90;;;1.90;;
27746;SDS011;15138;51.012;4.692;2023-02-26T06:25:25;8.07;;;1.42;;
27746;SDS011;15138;51.012;4.692;2023-02-26T06:27:54;8.63;;;1.60;;
27746;SDS011;15138;51.012;4.692;2023-02-26T06:30:22;10.23;;;2.13;;
27746;SDS011;15138;51.012;4.692;2023-02-26T06:32:51;6.28;;;1.45;;
27746;SDS011;15138;51.012;4.692;2023-02-26T06:35:21;3.80;;;1.33;;
27746;SDS011;15138;51.012;4.692;2023-02-26T06:37:49;3.70;;;1.20;;
27746;SDS011;15138;51.012;4.692;2023-02-26T06:40:18;6.53;;;1.67;;
27746;SDS011;15138;51.012;4.692;2023-02-26T06:42:47;5.43;;;1.33;;
27746;SDS011;15138;51.012;4.692;2023-02-26T06:45:15;8.73;;;1.77;;
27746;SDS011;15138;51.012;4.692;2023-02-26T06:47:44;7.82;;;1.90;;
27746;SDS011;15138;51.012;4.692;2023-02-26T06:50:12;6.88;;;2.08;;
27746;SDS011;15138;51.012;4.692;2023-02-26T06:52:42;7.72;;;2.58;;
27746;SDS011;15138;51.012;4.692;2023-02-26T06:55:10;4.55;;;1.33;;
27746;SDS011;15138;51.012;4.692;2023-02-26T06:57:38;8.50;;;1.70;;
27746;SDS011;15138;51.012;4.692;2023-02-26T07:00:07;11.70;;;1.80;;
27746;SDS011;15138;51.012;4.692;2023-02-26T07:02:36;3.13;;;1.70;;
27746;SDS011;15138;51.012;4.692;2023-02-26T07:05:05;4.70;;;1.30;;
27746;SDS011;15138;51.012;4.692;2023-02-26T07:07:34;6.32;;;1.70;;
27746;SDS011;15138;51.012;4.692;2023-02-26T07:10:04;8.13;;;1.40;;
27746;SDS011;15138;51.012;4.692;2023-02-26T07:12:34;3.40;;;1.10;;
27746;SDS011;15138;51.012;4.692;2023-02-26T07:15:04;5.95;;;1.83;;
27746;SDS011;15138;51.012;4.692;2023-02-26T07:17:33;9.07;;;1.90;;
27746;SDS011;15138;51.012;4.692;2023-02-26T07:20:02;8.85;;;1.60;;
27746;SDS011;15138;51.012;4.692;2023-02-26T07:22:35;11.80;;;1.75;;
27746;SDS011;15138;51.012;4.692;2023-02-26T07:25:06;9.18;;;2.00;;
27746;SDS011;15138;51.012;4.692;2023-02-26T07:27:35;8.85;;;1.40;;
27746;SDS011;15138;51.012;4.692;2023-02-26T07:30:05;7.28;;;1.75;;
27746;SDS011;15138;51.012;4.692;2023-02-26T07:32:35;4.57;;;1.05;;
27746;SDS011;15138;51.012;4.692;2023-02-26T07:35:04;6.18;;;1.88;;
27746;SDS011;15138;51.012;4.692;2023-02-26T07:37:33;4.45;;;1.20;;
27746;SDS011;15138;51.012;4.692;2023-02-26T07:40:01;6.72;;;1.58;;
27746;SDS011;15138;51.012;4.692;2023-02-26T07:42:32;13.68;;;2.65;;
27746;SDS011;15138;51.012;4.692;2023-02-26T07:45:00;5.78;;;1.63;;
27746;SDS011;15138;51.012;4.692;2023-02-26T07:47:28;9.65;;;1.38;;
27746;SDS011;15138;51.012;4.692;2023-02-26T07:49:57;6.25;;;1.40;;
27746;SDS011;15138;51.012;4.692;2023-02-26T07:52:25;6.90;;;1.80;;
27746;SDS011;15138;51.012;4.692;2023-02-26T07:54:54;7.72;;;1.83;;
27746;SDS011;15138;51.012;4.692;2023-02-26T07:57:22;6.55;;;1.10;;
27746;SDS011;15138;51.012;4.692;2023-02-26T07:59:52;8.55;;;1.73;;
27746;SDS011;15138;51.012;4.692;2023-02-26T08:02:20;6.70;;;1.23;;
27746;SDS011;15138;51.012;4.692;2023-02-26T08:04:50;11.77;;;1.58;;
27746;SDS011;15138;51.012;4.692;2023-02-26T08:07:18;10.70;;;1.73;;
27746;SDS011;15138;51.012;4.692;2023-02-26T08:09:47;9.52;;;1.70;;
27746;SDS011;15138;51.012;4.692;2023-02-26T08:12:15;6.15;;;1.67;;
27746;SDS011;15138;51.012;4.692;2023-02-26T08:14:45;4.68;;;1.60;;
27746;SDS011;15138;51.012;4.692;2023-02-26T08:17:15;3.05;;;1.25;;
27746;SDS011;15138;51.012;4.692;2023-02-26T08:19:43;5.93;;;1.60;;
27746;SDS011;15138;51.012;4.692;2023-02-26T08:22:11;6.60;;;1.40;;
27746;SDS011;15138;51.012;4.692;2023-02-26T08:24:40;2.65;;;1.20;;
27746;SDS011;15138;51.012;4.692;2023-02-26T08:27:09;8.57;;;1.42;;
27746;SDS011;15138;51.012;4.692;2023-02-26T08:29:39;5.43;;;1.60;;
27746;SDS011;15138;51.012;4.692;2023-02-26T08:32:08;7.57;;;1.58;;
27746;SDS011;15138;51.012;4.692;2023-02-26T08:34:38;4.47;;;1.17;;
27746;SDS011;15138;51.012;4.692;2023-02-26T08:37:06;3.58;;;1.15;;
27746;SDS011;15138;51.012;4.692;2023-02-26T08:39:37;4.28;;;1.10;;
27746;SDS011;15138;51.012;4.692;2023-02-26T08:42:06;4.65;;;1.60;;
27746;SDS011;15138;51.012;4.692;2023-02-26T08:44:36;1.67;;;0.75;;
27746;SDS011;15138;51.012;4.692;2023-02-26T08:47:05;5.40;;;1.98;;
27746;SDS011;15138;51.012;4.692;2023-02-26T08:49:33;8.45;;;1.30;;
27746;SDS011;15138;51.012;4.692;2023-02-26T08:52:03;7.00;;;1.45;;
27746;SDS011;15138;51.012;4.692;2023-02-26T08:54:32;3.92;;;1.10;;
27746;SDS011;15138;51.012;4.692;2023-02-26T08:57:01;6.47;;;1.38;;
27746;SDS011;15138;51.012;4.692;2023-02-26T08:59:29;3.72;;;1.10;;
27746;SDS011;15138;51.012;4.692;2023-02-26T09:01:58;5.53;;;1.48;;
27746;SDS011;15138;51.012;4.692;2023-02-26T09:04:26;5.68;;;1.30;;
27746;SDS011;15138;51.012;4.692;2023-02-26T09:06:56;4.38;;;1.05;;
27746;SDS011;15138;51.012;4.692;2023-02-26T09:09:26;1.20;;;0.60;;
27746;SDS011;15138;51.012;4.692;2023-02-26T09:11:54;8.52;;;1.20;;
27746;SDS011;15138;51.012;4.692;2023-02-26T09:14:23;3.55;;;1.08;;
27746;SDS011;15138;51.012;4.692;2023-02-26T09:16:51;3.50;;;1.13;;
27746;SDS011;15138;51.012;4.692;2023-02-26T09:19:20;3.03;;;1.05;;
27746;SDS011;15138;51.012;4.692;2023-02-26T09:21:49;3.47;;;1.00;;
27746;SDS011;15138;51.012;4.692;2023-02-26T09:24:17;0.57;;;0.50;;
27746;SDS011;15138;51.012;4.692;2023-02-26T09:26:47;5.45;;;1.17;;
27746;SDS011;15138;51.012;4.692;2023-02-26T09:29:16;1.70;;;0.38;;
27746;SDS011;15138;51.012;4.692;2023-02-26T09:31:44;5.10;;;1.00;;
27746;SDS011;15138;51.012;4.692;2023-02-26T09:34:13;3.83;;;1.10;;
27746;SDS011;15138;51.012;4.692;2023-02-26T09:36:42;3.83;;;0.85;;
27746;SDS011;15138;51.012;4.692;2023-02-26T09:39:11;0.93;;;0.65;;
27746;SDS011;15138;51.012;4.692;2023-02-26T09:41:41;4.75;;;1.00;;
27746;SDS011;15138;51.012;4.692;2023-02-26T09:44:19;2.33;;;0.65;;
27746;SDS011;15138;51.012;4.692;2023-02-26T09:46:53;5.38;;;1.23;;
27746;SDS011;15138;51.012;4.692;2023-02-26T09:49:30;5.10;;;1.20;;
27746;SDS011;15138;51.012;4.692;2023-02-26T09:52:16;4.70;;;1.33;;
27746;SDS011;15138;51.012;4.692;2023-02-26T09:54:49;3.85;;;0.95;;
27746;SDS011;15138;51.012;4.692;2023-02-26T09:57:23;3.85;;;1.10;;
27746;SDS011;15138;51.012;4.692;2023-02-26T09:59:59;3.03;;;1.20;;
27746;SDS011;15138;51.012;4.692;2023-02-26T10:02:31;5.47;;;1.45;;
27746;SDS011;15138;51.012;4.692;2023-02-26T10:05:10;3.88;;;0.82;;
27746;SDS011;15138;51.012;4.692;2023-02-26T10:07:48;4.10;;;0.77;;
27746;SDS011;15138;51.012;4.692;2023-02-26T10:10:26;4.70;;;1.00;;
27746;SDS011;15138;51.012;4.692;2023-02-26T10:13:03;2.33;;;0.90;;
27746;SDS011;15138;51.012;4.692;2023-02-26T10:15:34;4.07;;;1.00;;
27746;SDS011;15138;51.012;4.692;2023-02-26T10:18:08;1.88;;;0.70;;
27746;SDS011;15138;51.012;4.692;2023-02-26T10:20:41;2.05;;;0.80;;
27746;SDS011;15138;51.012;4.692;2023-02-26T10:23:23;3.58;;;1.00;;
27746;SDS011;15138;51.012;4.692;2023-02-26T10:26:00;1.15;;;0.63;;
27746;SDS011;15138;51.012;4.692;2023-02-26T10:28:38;9.30;;;1.17;;
27746;SDS011;15138;51.012;4.692;2023-02-26T10:31:20;3.13;;;0.98;;
27746;SDS011;15138;51.012;4.692;2023-02-26T10:33:57;3.53;;;1.02;;
27746;SDS011;15138;51.012;4.692;2023-02-26T10:36:46;5.68;;;1.35;;
27746;SDS011;15138;51.012;4.692;2023-02-26T10:39:25;7.75;;;1.13;;
27746;SDS011;15138;51.012;4.692;2023-02-26T10:41:56;5.28;;;1.10;;
27746;SDS011;15138;51.012;4.692;2023-02-26T10:44:31;5.13;;;1.20;;
27746;SDS011;15138;51.012;4.692;2023-02-26T10:47:07;5.83;;;0.90;;
27746;SDS011;15138;51.012;4.692;2023-02-26T10:49:47;7.22;;;1.10;;
27746;SDS011;15138;51.012;4.692;2023-02-26T10:52:20;5.05;;;1.20;;
27746;SDS011;15138;51.012;4.692;2023-02-26T10:55:00;3.95;;;1.10;;
27746;SDS011;15138;51.012;4.692;2023-02-26T10:57:36;2.47;;;0.80;;
27746;SDS011;15138;51.012;4.692;2023-02-26T11:00:14;3.92;;;0.85;;
27746;SDS011;15138;51.012;4.692;2023-02-26T11:02:47;3.08;;;0.93;;
27746;SDS011;15138;51.012;4.692;2023-02-26T11:05:19;5.35;;;1.02;;
27746;SDS011;15138;51.012;4.692;2023-02-26T11:07:50;3.10;;;0.95;;
27746;SDS011;15138;51.012;4.692;2023-02-26T11:10:22;3.35;;;1.00;;
27746;SDS011;15138;51.012;4.692;2023-02-26T11:12:57;1.27;;;0.65;;
27746;SDS011;15138;51.012;4.692;2023-02-26T11:15:26;1.58;;;0.75;;
27746;SDS011;15138;51.012;4.692;2023-02-26T11:17:56;5.55;;;0.95;;
27746;SDS011;15138;51.012;4.692;2023-02-26T11:20:29;3.83;;;1.15;;
27746;SDS011;15138;51.012;4.692;2023-02-26T11:23:01;2.63;;;0.88;;
27746;SDS011;15138;51.012;4.692;2023-02-26T11:25:31;5.93;;;1.05;;
27746;SDS011;15138;51.012;4.692;2023-02-26T11:28:02;5.50;;;0.98;;
27746;SDS011;15138;51.012;4.692;2023-02-26T11:30:33;4.22;;;0.90;;
27746;SDS011;15138;51.012;4.692;2023-02-26T11:33:13;2.35;;;0.70;;
27746;SDS011;15138;51.012;4.692;2023-02-26T11:35:44;3.22;;;1.00;;
27746;SDS011;15138;51.012;4.692;2023-02-26T11:38:15;2.70;;;1.00;;
27746;SDS011;15138;51.012;4.692;2023-02-26T11:40:48;5.07;;;0.90;;
27746;SDS011;15138;51.012;4.692;2023-02-26T11:43:21;4.35;;;1.08;;
27746;SDS011;15138;51.012;4.692;2023-02-26T11:45:54;2.42;;;0.85;;
27746;SDS011;15138;51.012;4.692;2023-02-26T11:48:28;5.55;;;1.10;;
27746;SDS011;15138;51.012;4.692;2023-02-26T11:51:04;0.93;;;0.50;;
27746;SDS011;15138;51.012;4.692;2023-02-26T11:53:35;2.97;;;0.70;;
27746;SDS011;15138;51.012;4.692;2023-02-26T11:56:08;1.15;;;0.52;;
27746;SDS011;15138;51.012;4.692;2023-02-26T11:58:40;1.23;;;0.68;;
27746;SDS011;15138;51.012;4.692;2023-02-26T12:01:11;2.10;;;1.00;;
27746;SDS011;15138;51.012;4.692;2023-02-26T12:03:42;3.22;;;0.82;;
27746;SDS011;15138;51.012;4.692;2023-02-26T12:06:14;2.97;;;0.90;;
27746;SDS011;15138;51.012;4.692;2023-02-26T12:08:44;2.55;;;1.13;;
27746;SDS011;15138;51.012;4.692;2023-02-26T12:11:17;0.60;;;0.40;;
27746;SDS011;15138;51.012;4.692;2023-02-26T12:14:32;3.25;;;0.60;;
27746;SDS011;15138;51.012;4.692;2023-02-26T12:17:20;3.58;;;0.93;;
27746;SDS011;15138;51.012;4.692;2023-02-26T12:20:02;3.28;;;1.00;;
27746;SDS011;15138;51.012;4.692;2023-02-26T12:22:48;2.47;;;0.93;;
27746;SDS011;15138;51.012;4.692;2023-02-26T12:25:22;1.63;;;0.65;;
27746;SDS011;15138;51.012;4.692;2023-02-26T12:28:15;2.45;;;1.00;;
27746;SDS011;15138;51.012;4.692;2023-02-26T12:31:16;3.50;;;1.02;;
27746;SDS011;15138;51.012;4.692;2023-02-26T12:34:11;2.67;;;0.60;;
27746;SDS011;15138;51.012;4.692;2023-02-26T12:37:02;2.45;;;0.80;;
27746;SDS011;15138;51.012;4.692;2023-02-26T12:39:45;3.65;;;0.95;;
27746;SDS011;15138;51.012;4.692;2023-02-26T12:42:27;4.28;;;0.90;;
27746;SDS011;15138;51.012;4.692;2023-02-26T12:45:07;4.20;;;0.80;;
27746;SDS011;15138;51.012;4.692;2023-02-26T12:47:44;2.70;;;0.75;;
27746;SDS011;15138;51.012;4.692;2023-02-26T12:50:27;7.00;;;0.90;;
27746;SDS011;15138;51.012;4.692;2023-02-26T12:53:22;4.53;;;1.05;;
27746;SDS011;15138;51.012;4.692;2023-02-26T12:56:21;2.75;;;0.70;;
27746;SDS011;15138;51.012;4.692;2023-02-26T12:59:20;1.65;;;0.88;;
27746;SDS011;15138;51.012;4.692;2023-02-26T13:02:01;2.17;;;0.77;;
27746;SDS011;15138;51.012;4.692;2023-02-26T13:04:55;2.15;;;1.05;;
27746;SDS011;15138;51.012;4.692;2023-02-26T13:10:46;3.60;;;0.68;;
27746;SDS011;15138;51.012;4.692;2023-02-26T13:16:38;1.38;;;0.70;;
27746;SDS011;15138;51.012;4.692;2023-02-26T13:19:15;2.92;;;0.80;;
27746;SDS011;15138;51.012;4.692;2023-02-26T13:21:55;2.83;;;0.70;;
27746;SDS011;15138;51.012;4.692;2023-02-26T13:24:26;2.97;;;0.57;;
27746;SDS011;15138;51.012;4.692;2023-02-26T13:27:03;1.52;;;0.70;;
27746;SDS011;15138;51.012;4.692;2023-02-26T13:29:34;2.33;;;0.88;;
27746;SDS011;15138;51.012;4.692;2023-02-26T13:32:06;3.35;;;0.90;;
27746;SDS011;15138;51.012;4.692;2023-02-26T13:34:40;5.95;;;1.08;;
27746;SDS011;15138;51.012;4.692;2023-02-26T13:37:16;1.45;;;0.60;;
27746;SDS011;15138;51.012;4.692;2023-02-26T13:39:53;2.78;;;0.80;;
27746;SDS011;15138;51.012;4.692;2023-02-26T13:42:40;2.55;;;0.90;;
27746;SDS011;15138;51.012;4.692;2023-02-26T13:45:17;2.00;;;0.82;;
27746;SDS011;15138;51.012;4.692;2023-02-26T13:48:00;1.30;;;0.50;;
27746;SDS011;15138;51.012;4.692;2023-02-26T13:50:40;2.08;;;0.80;;
27746;SDS011;15138;51.012;4.692;2023-02-26T13:53:34;3.42;;;0.82;;
27746;SDS011;15138;51.012;4.692;2023-02-26T13:56:15;4.28;;;0.85;;
27746;SDS011;15138;51.012;4.692;2023-02-26T13:58:48;1.55;;;0.60;;
27746;SDS011;15138;51.012;4.692;2023-02-26T14:01:25;1.17;;;0.77;;
27746;SDS011;15138;51.012;4.692;2023-02-26T14:04:05;1.95;;;0.82;;
27746;SDS011;15138;51.012;4.692;2023-02-26T14:06:49;2.75;;;0.90;;
27746;SDS011;15138;51.012;4.692;2023-02-26T14:12:24;3.60;;;0.90;;
27746;SDS011;15138;51.012;4.692;2023-02-26T14:15:19;3.22;;;0.93;;
27746;SDS011;15138;51.012;4.692;2023-02-26T14:18:03;3.03;;;0.90;;
27746;SDS011;15138;51.012;4.692;2023-02-26T14:20:45;2.92;;;0.75;;
27746;SDS011;15138;51.012;4.692;2023-02-26T14:23:21;2.25;;;0.77;;
27746;SDS011;15138;51.012;4.692;2023-02-26T14:26:02;3.15;;;0.75;;
27746;SDS011;15138;51.012;4.692;2023-02-26T14:28:36;2.22;;;0.80;;
27746;SDS011;15138;51.012;4.692;2023-02-26T14:31:15;2.45;;;0.80;;
27746;SDS011;15138;51.012;4.692;2023-02-26T14:33:57;2.63;;;0.90;;
27746;SDS011;15138;51.012;4.692;2023-02-26T14:39:04;2.15;;;1.10;;
27746;SDS011;15138;51.012;4.692;2023-02-26T14:41:37;1.13;;;0.60;;
27746;SDS011;15138;51.012;4.692;2023-02-26T14:44:10;3.05;;;0.43;;
27746;SDS011;15138;51.012;4.692;2023-02-26T14:46:43;3.72;;;0.90;;
27746;SDS011;15138;51.012;4.692;2023-02-26T14:49:14;1.92;;;0.90;;
27746;SDS011;15138;51.012;4.692;2023-02-26T14:51:47;2.60;;;0.60;;
27746;SDS011;15138;51.012;4.692;2023-02-26T14:54:31;2.78;;;0.90;;
27746;SDS011;15138;51.012;4.692;2023-02-26T14:57:08;1.83;;;0.80;;
27746;SDS011;15138;51.012;4.692;2023-02-26T14:59:48;3.08;;;0.63;;
27746;SDS011;15138;51.012;4.692;2023-02-26T15:02:29;2.70;;;0.60;;
27746;SDS011;15138;51.012;4.692;2023-02-26T15:08:26;2.05;;;0.80;;
27746;SDS011;15138;51.012;4.692;2023-02-26T15:11:12;1.60;;;0.90;;
27746;SDS011;15138;51.012;4.692;2023-02-26T15:17:00;2.63;;;0.70;;
27746;SDS011;15138;51.012;4.692;2023-02-26T15:19:43;3.70;;;0.75;;
27746;SDS011;15138;51.012;4.692;2023-02-26T15:25:02;1.75;;;0.57;;
27746;SDS011;15138;51.012;4.692;2023-02-26T15:27:32;5.18;;;1.15;;
27746;SDS011;15138;51.012;4.692;2023-02-26T15:30:02;2.05;;;0.85;;
27746;SDS011;15138;51.012;4.692;2023-02-26T15:32:35;1.38;;;0.73;;
27746;SDS011;15138;51.012;4.692;2023-02-26T15:35:13;2.42;;;1.02;;
27746;SDS011;15138;51.012;4.692;2023-02-26T15:37:47;4.03;;;0.95;;
27746;SDS011;15138;51.012;4.692;2023-02-26T15:40:17;0.38;;;0.28;;
27746;SDS011;15138;51.012;4.692;2023-02-26T15:42:48;4.40;;;1.35;;
27746;SDS011;15138;51.012;4.692;2023-02-26T15:45:21;3.35;;;0.98;;